Jollyville, Texas
Current Conditions -  °F | °C
As of 4:51 PM on Thursday 20 Nov 2014 (Local Time) from KATT Reporting Station
Overcast Overcast  
Wind Chill: 68°   Ceiling: 2300
Heat Index: 68°   Visibility: 10mi
Dew Point: 61°   Wind: 6mph
Humidity: 78%   Direction: NA
Pressure: 30.03"   Gusts: NA
Location:  30.44°N, 97.77°W
Report Text: KATT 202251Z AUTO VRB05KT 10SM BKN023 BKN027 OVC038 20/16 A3003 RMK AO2 SLP166 T02000161
Loading
Personal Weather Stations






























Interactive Weather Map New forecast layout! Learn more

10-Day Weather Forecast

Advertisements
Track Severe Weather on mobile